sensor_id;sensor_type;location;lat;lon;timestamp;P1;durP1;ratioP1;P2;durP2;ratioP2
22768;SDS011;13001;51.968;5.918;2022-09-09T00:04:33;803.07;;;730.77;;
22768;SDS011;13001;51.968;5.918;2022-09-09T00:07:14;827.62;;;755.80;;
22768;SDS011;13001;51.968;5.918;2022-09-09T00:09:42;828.67;;;757.33;;
22768;SDS011;13001;51.968;5.918;2022-09-09T00:12:30;843.20;;;772.25;;
22768;SDS011;13001;51.968;5.918;2022-09-09T00:19:45;826.40;;;755.53;;
22768;SDS011;13001;51.968;5.918;2022-09-09T00:22:16;812.45;;;740.10;;
22768;SDS011;13001;51.968;5.918;2022-09-09T00:29:57;853.48;;;783.40;;
22768;SDS011;13001;51.968;5.918;2022-09-09T00:32:20;818.65;;;745.88;;
22768;SDS011;13001;51.968;5.918;2022-09-09T00:34:52;850.50;;;779.30;;
22768;SDS011;13001;51.968;5.918;2022-09-09T00:37:20;837.75;;;763.50;;
22768;SDS011;13001;51.968;5.918;2022-09-09T00:39:48;863.73;;;793.73;;
22768;SDS011;13001;51.968;5.918;2022-09-09T00:42:24;847.60;;;776.22;;
22768;SDS011;13001;51.968;5.918;2022-09-09T00:47:34;846.95;;;772.58;;
22768;SDS011;13001;51.968;5.918;2022-09-09T00:50:00;830.55;;;756.33;;
22768;SDS011;13001;51.968;5.918;2022-09-09T00:57:45;847.25;;;773.40;;
22768;SDS011;13001;51.968;5.918;2022-09-09T01:00:23;838.45;;;765.95;;
22768;SDS011;13001;51.968;5.918;2022-09-09T01:05:23;812.88;;;733.98;;
22768;SDS011;13001;51.968;5.918;2022-09-09T01:07:49;811.08;;;731.35;;
22768;SDS011;13001;51.968;5.918;2022-09-09T01:10:24;796.58;;;718.37;;
22768;SDS011;13001;51.968;5.918;2022-09-09T01:12:51;803.00;;;726.33;;
22768;SDS011;13001;51.968;5.918;2022-09-09T01:15:22;798.92;;;720.98;;
22768;SDS011;13001;51.968;5.918;2022-09-09T01:18:04;806.12;;;731.33;;
22768;SDS011;13001;51.968;5.918;2022-09-09T01:20:44;785.10;;;710.63;;
22768;SDS011;13001;51.968;5.918;2022-09-09T01:28:43;778.20;;;704.05;;
22768;SDS011;13001;51.968;5.918;2022-09-09T01:31:12;731.63;;;658.87;;
22768;SDS011;13001;51.968;5.918;2022-09-09T01:33:40;760.75;;;688.10;;
22768;SDS011;13001;51.968;5.918;2022-09-09T01:36:12;741.23;;;668.00;;
22768;SDS011;13001;51.968;5.918;2022-09-09T01:38:38;714.83;;;643.90;;
22768;SDS011;13001;51.968;5.918;2022-09-09T01:41:06;749.23;;;676.42;;
22768;SDS011;13001;51.968;5.918;2022-09-09T01:43:33;733.85;;;660.80;;
22768;SDS011;13001;51.968;5.918;2022-09-09T01:46:01;722.23;;;650.05;;
22768;SDS011;13001;51.968;5.918;2022-09-09T01:48:29;748.60;;;676.95;;
22768;SDS011;13001;51.968;5.918;2022-09-09T01:50:56;736.23;;;662.42;;
22768;SDS011;13001;51.968;5.918;2022-09-09T01:53:24;726.02;;;653.15;;
22768;SDS011;13001;51.968;5.918;2022-09-09T02:01:15;734.30;;;661.47;;
22768;SDS011;13001;51.968;5.918;2022-09-09T02:03:40;726.85;;;654.62;;
22768;SDS011;13001;51.968;5.918;2022-09-09T02:06:20;749.75;;;676.42;;
22768;SDS011;13001;51.968;5.918;2022-09-09T02:08:48;730.33;;;661.58;;
22768;SDS011;13001;51.968;5.918;2022-09-09T02:11:14;742.27;;;672.00;;
22768;SDS011;13001;51.968;5.918;2022-09-09T02:13:46;737.67;;;667.53;;
22768;SDS011;13001;51.968;5.918;2022-09-09T02:16:18;733.05;;;663.25;;
22768;SDS011;13001;51.968;5.918;2022-09-09T02:19:02;720.98;;;652.40;;
22768;SDS011;13001;51.968;5.918;2022-09-09T02:21:30;720.48;;;652.50;;
22768;SDS011;13001;51.968;5.918;2022-09-09T02:24:00;732.17;;;661.92;;
22768;SDS011;13001;51.968;5.918;2022-09-09T02:26:31;738.10;;;668.30;;
22768;SDS011;13001;51.968;5.918;2022-09-09T02:28:59;728.52;;;659.83;;
22768;SDS011;13001;51.968;5.918;2022-09-09T02:31:28;716.80;;;648.08;;
22768;SDS011;13001;51.968;5.918;2022-09-09T02:33:56;717.92;;;649.27;;
22768;SDS011;13001;51.968;5.918;2022-09-09T02:36:25;717.45;;;649.30;;
22768;SDS011;13001;51.968;5.918;2022-09-09T02:38:53;707.58;;;640.75;;
22768;SDS011;13001;51.968;5.918;2022-09-09T02:41:30;728.27;;;660.02;;
22768;SDS011;13001;51.968;5.918;2022-09-09T02:43:54;702.97;;;637.20;;
22768;SDS011;13001;51.968;5.918;2022-09-09T02:49:06;694.02;;;628.73;;
22768;SDS011;13001;51.968;5.918;2022-09-09T02:51:40;708.10;;;640.90;;
22768;SDS011;13001;51.968;5.918;2022-09-09T02:54:17;690.45;;;624.67;;
22768;SDS011;13001;51.968;5.918;2022-09-09T02:56:51;687.63;;;621.03;;
22768;SDS011;13001;51.968;5.918;2022-09-09T02:59:16;673.05;;;609.27;;
22768;SDS011;13001;51.968;5.918;2022-09-09T03:01:44;706.08;;;641.62;;
22768;SDS011;13001;51.968;5.918;2022-09-09T03:04:11;679.50;;;615.67;;
22768;SDS011;13001;51.968;5.918;2022-09-09T03:06:38;683.53;;;619.85;;
22768;SDS011;13001;51.968;5.918;2022-09-09T03:09:06;704.53;;;640.60;;
22768;SDS011;13001;51.968;5.918;2022-09-09T03:11:34;714.10;;;648.80;;
22768;SDS011;13001;51.968;5.918;2022-09-09T03:14:02;713.27;;;647.85;;
22768;SDS011;13001;51.968;5.918;2022-09-09T03:16:29;709.87;;;643.48;;
22768;SDS011;13001;51.968;5.918;2022-09-09T03:18:56;729.73;;;663.93;;
22768;SDS011;13001;51.968;5.918;2022-09-09T03:21:24;713.65;;;647.65;;
22768;SDS011;13001;51.968;5.918;2022-09-09T03:23:51;708.92;;;643.00;;
22768;SDS011;13001;51.968;5.918;2022-09-09T03:26:18;706.55;;;639.32;;
22768;SDS011;13001;51.968;5.918;2022-09-09T03:28:46;679.90;;;614.70;;
22768;SDS011;13001;51.968;5.918;2022-09-09T03:31:13;702.45;;;635.80;;
22768;SDS011;13001;51.968;5.918;2022-09-09T03:33:40;683.35;;;618.35;;
22768;SDS011;13001;51.968;5.918;2022-09-09T03:36:08;690.67;;;623.90;;
22768;SDS011;13001;51.968;5.918;2022-09-09T03:38:36;691.77;;;626.45;;
22768;SDS011;13001;51.968;5.918;2022-09-09T03:41:03;745.17;;;679.20;;
22768;SDS011;13001;51.968;5.918;2022-09-09T03:43:33;748.05;;;682.20;;
22768;SDS011;13001;51.968;5.918;2022-09-09T03:46:00;718.97;;;655.10;;
22768;SDS011;13001;51.968;5.918;2022-09-09T03:48:27;750.70;;;684.70;;
22768;SDS011;13001;51.968;5.918;2022-09-09T03:50:55;742.10;;;676.50;;
22768;SDS011;13001;51.968;5.918;2022-09-09T03:53:24;750.60;;;685.75;;
22768;SDS011;13001;51.968;5.918;2022-09-09T03:55:52;757.52;;;691.20;;
22768;SDS011;13001;51.968;5.918;2022-09-09T03:58:22;738.03;;;672.70;;
22768;SDS011;13001;51.968;5.918;2022-09-09T04:00:53;742.93;;;677.20;;
22768;SDS011;13001;51.968;5.918;2022-09-09T04:03:21;782.93;;;717.33;;
22768;SDS011;13001;51.968;5.918;2022-09-09T04:05:53;751.37;;;688.30;;
22768;SDS011;13001;51.968;5.918;2022-09-09T04:08:22;775.17;;;709.65;;
22768;SDS011;13001;51.968;5.918;2022-09-09T04:10:51;753.52;;;688.58;;
22768;SDS011;13001;51.968;5.918;2022-09-09T04:13:19;742.15;;;678.02;;
22768;SDS011;13001;51.968;5.918;2022-09-09T04:18:39;774.92;;;713.03;;
22768;SDS011;13001;51.968;5.918;2022-09-09T04:21:06;757.17;;;697.17;;
22768;SDS011;13001;51.968;5.918;2022-09-09T04:23:36;759.85;;;699.40;;
22768;SDS011;13001;51.968;5.918;2022-09-09T04:26:03;754.87;;;693.17;;
22768;SDS011;13001;51.968;5.918;2022-09-09T04:28:32;765.42;;;704.10;;
22768;SDS011;13001;51.968;5.918;2022-09-09T04:31:06;760.10;;;696.90;;
22768;SDS011;13001;51.968;5.918;2022-09-09T04:33:33;759.52;;;697.35;;
22768;SDS011;13001;51.968;5.918;2022-09-09T04:36:01;750.77;;;685.05;;
22768;SDS011;13001;51.968;5.918;2022-09-09T04:38:28;746.48;;;681.23;;
22768;SDS011;13001;51.968;5.918;2022-09-09T04:40:55;750.75;;;683.23;;
22768;SDS011;13001;51.968;5.918;2022-09-09T04:43:23;755.90;;;683.23;;
22768;SDS011;13001;51.968;5.918;2022-09-09T04:45:52;752.05;;;683.12;;
22768;SDS011;13001;51.968;5.918;2022-09-09T04:48:20;767.30;;;699.92;;
22768;SDS011;13001;51.968;5.918;2022-09-09T04:50:54;746.35;;;676.17;;
22768;SDS011;13001;51.968;5.918;2022-09-09T04:53:22;749.83;;;683.60;;
22768;SDS011;13001;51.968;5.918;2022-09-09T04:55:49;746.35;;;680.37;;
22768;SDS011;13001;51.968;5.918;2022-09-09T04:58:17;753.55;;;686.47;;
22768;SDS011;13001;51.968;5.918;2022-09-09T05:00:44;742.92;;;679.35;;
22768;SDS011;13001;51.968;5.918;2022-09-09T05:03:12;748.17;;;685.10;;
22768;SDS011;13001;51.968;5.918;2022-09-09T05:05:40;753.30;;;685.97;;
22768;SDS011;13001;51.968;5.918;2022-09-09T05:08:07;737.38;;;672.80;;
22768;SDS011;13001;51.968;5.918;2022-09-09T05:10:37;727.95;;;666.52;;
22768;SDS011;13001;51.968;5.918;2022-09-09T05:13:05;740.23;;;678.58;;
22768;SDS011;13001;51.968;5.918;2022-09-09T05:15:32;741.20;;;681.52;;
22768;SDS011;13001;51.968;5.918;2022-09-09T05:18:00;742.92;;;680.67;;
22768;SDS011;13001;51.968;5.918;2022-09-09T05:20:28;751.48;;;690.50;;
22768;SDS011;13001;51.968;5.918;2022-09-09T05:22:56;742.58;;;683.72;;
22768;SDS011;13001;51.968;5.918;2022-09-09T05:25:23;710.27;;;654.83;;
22768;SDS011;13001;51.968;5.918;2022-09-09T05:27:52;733.60;;;675.98;;
22768;SDS011;13001;51.968;5.918;2022-09-09T05:30:20;740.83;;;678.97;;
22768;SDS011;13001;51.968;5.918;2022-09-09T05:32:49;750.45;;;689.95;;
22768;SDS011;13001;51.968;5.918;2022-09-09T05:35:19;767.12;;;701.25;;
22768;SDS011;13001;51.968;5.918;2022-09-09T05:37:46;762.33;;;696.37;;
22768;SDS011;13001;51.968;5.918;2022-09-09T05:40:15;770.12;;;704.05;;
22768;SDS011;13001;51.968;5.918;2022-09-09T05:42:44;740.05;;;677.95;;
22768;SDS011;13001;51.968;5.918;2022-09-09T05:45:12;775.90;;;707.73;;
22768;SDS011;13001;51.968;5.918;2022-09-09T05:47:39;794.58;;;723.97;;
22768;SDS011;13001;51.968;5.918;2022-09-09T05:50:06;806.10;;;733.72;;
22768;SDS011;13001;51.968;5.918;2022-09-09T05:52:34;816.97;;;743.00;;
22768;SDS011;13001;51.968;5.918;2022-09-09T05:55:01;797.05;;;724.42;;
22768;SDS011;13001;51.968;5.918;2022-09-09T05:57:30;851.37;;;776.37;;
22768;SDS011;13001;51.968;5.918;2022-09-09T05:59:57;605.67;;;558.50;;
22768;SDS011;13001;51.968;5.918;2022-09-09T06:02:25;662.93;;;607.50;;
22768;SDS011;13001;51.968;5.918;2022-09-09T06:04:52;622.47;;;571.63;;
22768;SDS011;13001;51.968;5.918;2022-09-09T06:07:21;547.02;;;498.47;;
22768;SDS011;13001;51.968;5.918;2022-09-09T06:09:48;559.65;;;507.68;;
22768;SDS011;13001;51.968;5.918;2022-09-09T06:12:17;657.63;;;597.93;;
22768;SDS011;13001;51.968;5.918;2022-09-09T06:14:44;578.42;;;536.58;;
22768;SDS011;13001;51.968;5.918;2022-09-09T06:17:12;528.10;;;489.20;;
22768;SDS011;13001;51.968;5.918;2022-09-09T06:19:39;758.67;;;687.75;;
22768;SDS011;13001;51.968;5.918;2022-09-09T06:22:07;714.20;;;646.63;;
22768;SDS011;13001;51.968;5.918;2022-09-09T06:24:35;720.12;;;653.05;;
22768;SDS011;13001;51.968;5.918;2022-09-09T06:27:03;747.85;;;679.55;;
22768;SDS011;13001;51.968;5.918;2022-09-09T06:29:31;582.90;;;537.42;;
22768;SDS011;13001;51.968;5.918;2022-09-09T06:31:58;572.77;;;528.92;;
22768;SDS011;13001;51.968;5.918;2022-09-09T06:34:26;663.98;;;604.98;;
22768;SDS011;13001;51.968;5.918;2022-09-09T06:36:55;698.67;;;635.25;;
22768;SDS011;13001;51.968;5.918;2022-09-09T06:39:24;646.67;;;591.53;;
22768;SDS011;13001;51.968;5.918;2022-09-09T06:41:52;518.85;;;478.20;;
22768;SDS011;13001;51.968;5.918;2022-09-09T06:44:19;523.40;;;483.48;;
22768;SDS011;13001;51.968;5.918;2022-09-09T06:46:46;547.48;;;504.48;;
22768;SDS011;13001;51.968;5.918;2022-09-09T06:49:14;525.45;;;483.25;;
22768;SDS011;13001;51.968;5.918;2022-09-09T06:51:41;509.00;;;468.27;;
22768;SDS011;13001;51.968;5.918;2022-09-09T06:54:12;626.50;;;570.70;;
22768;SDS011;13001;51.968;5.918;2022-09-09T06:56:40;669.60;;;606.45;;
22768;SDS011;13001;51.968;5.918;2022-09-09T06:59:09;590.95;;;534.67;;
22768;SDS011;13001;51.968;5.918;2022-09-09T07:01:42;745.17;;;689.75;;
22768;SDS011;13001;51.968;5.918;2022-09-09T07:04:07;692.00;;;634.83;;
22768;SDS011;13001;51.968;5.918;2022-09-09T07:06:37;426.70;;;395.40;;
22768;SDS011;13001;51.968;5.918;2022-09-09T07:09:08;659.13;;;607.52;;
22768;SDS011;13001;51.968;5.918;2022-09-09T07:11:40;758.70;;;696.37;;
22768;SDS011;13001;51.968;5.918;2022-09-09T07:14:11;727.08;;;673.20;;
22768;SDS011;13001;51.968;5.918;2022-09-09T07:16:45;781.17;;;723.95;;
22768;SDS011;13001;51.968;5.918;2022-09-09T07:19:09;747.92;;;691.67;;
22768;SDS011;13001;51.968;5.918;2022-09-09T07:21:36;756.80;;;698.30;;
22768;SDS011;13001;51.968;5.918;2022-09-09T07:24:04;673.42;;;626.67;;
22768;SDS011;13001;51.968;5.918;2022-09-09T07:26:33;549.23;;;508.85;;
22768;SDS011;13001;51.968;5.918;2022-09-09T07:29:01;477.25;;;444.43;;
22768;SDS011;13001;51.968;5.918;2022-09-09T07:31:34;639.52;;;588.25;;
22768;SDS011;13001;51.968;5.918;2022-09-09T07:33:58;707.27;;;651.30;;
22768;SDS011;13001;51.968;5.918;2022-09-09T07:36:27;653.23;;;599.05;;
22768;SDS011;13001;51.968;5.918;2022-09-09T07:38:55;719.90;;;656.83;;
22768;SDS011;13001;51.968;5.918;2022-09-09T07:41:24;698.80;;;638.87;;
22768;SDS011;13001;51.968;5.918;2022-09-09T07:43:52;546.95;;;503.88;;
22768;SDS011;13001;51.968;5.918;2022-09-09T07:46:23;711.60;;;651.73;;
22768;SDS011;13001;51.968;5.918;2022-09-09T07:48:56;693.20;;;634.95;;
22768;SDS011;13001;51.968;5.918;2022-09-09T07:51:22;744.92;;;682.45;;
22768;SDS011;13001;51.968;5.918;2022-09-09T07:53:53;640.17;;;588.63;;
22768;SDS011;13001;51.968;5.918;2022-09-09T07:56:21;673.67;;;621.10;;
22768;SDS011;13001;51.968;5.918;2022-09-09T07:58:50;555.98;;;512.98;;
22768;SDS011;13001;51.968;5.918;2022-09-09T08:01:19;626.65;;;578.27;;
22768;SDS011;13001;51.968;5.918;2022-09-09T08:03:46;642.87;;;592.22;;
22768;SDS011;13001;51.968;5.918;2022-09-09T08:06:14;564.17;;;518.08;;
22768;SDS011;13001;51.968;5.918;2022-09-09T08:08:42;687.23;;;634.63;;
22768;SDS011;13001;51.968;5.918;2022-09-09T08:11:10;541.38;;;498.07;;
22768;SDS011;13001;51.968;5.918;2022-09-09T08:13:38;563.40;;;519.73;;
22768;SDS011;13001;51.968;5.918;2022-09-09T08:16:07;523.30;;;479.10;;
22768;SDS011;13001;51.968;5.918;2022-09-09T08:18:34;532.67;;;487.95;;
22768;SDS011;13001;51.968;5.918;2022-09-09T08:21:09;453.98;;;417.37;;
22768;SDS011;13001;51.968;5.918;2022-09-09T08:23:39;448.88;;;408.92;;
22768;SDS011;13001;51.968;5.918;2022-09-09T08:26:12;583.27;;;530.47;;
22768;SDS011;13001;51.968;5.918;2022-09-09T08:28:39;594.92;;;538.72;;
22768;SDS011;13001;51.968;5.918;2022-09-09T08:31:07;533.98;;;489.67;;
22768;SDS011;13001;51.968;5.918;2022-09-09T08:33:34;540.33;;;496.65;;
22768;SDS011;13001;51.968;5.918;2022-09-09T08:36:04;555.10;;;510.30;;
22768;SDS011;13001;51.968;5.918;2022-09-09T08:38:31;576.95;;;526.02;;
22768;SDS011;13001;51.968;5.918;2022-09-09T08:41:21;585.35;;;535.30;;
22768;SDS011;13001;51.968;5.918;2022-09-09T08:43:45;605.77;;;553.08;;
22768;SDS011;13001;51.968;5.918;2022-09-09T08:46:15;619.62;;;566.00;;
22768;SDS011;13001;51.968;5.918;2022-09-09T08:51:21;635.78;;;578.67;;
22768;SDS011;13001;51.968;5.918;2022-09-09T08:53:49;645.48;;;587.72;;
22768;SDS011;13001;51.968;5.918;2022-09-09T08:56:18;673.52;;;613.70;;
22768;SDS011;13001;51.968;5.918;2022-09-09T08:58:47;751.33;;;685.90;;
22768;SDS011;13001;51.968;5.918;2022-09-09T09:02:07;786.00;;;718.23;;
22768;SDS011;13001;51.968;5.918;2022-09-09T09:09:04;704.08;;;644.13;;
22768;SDS011;13001;51.968;5.918;2022-09-09T09:11:51;659.70;;;609.08;;
22768;SDS011;13001;51.968;5.918;2022-09-09T09:14:21;640.05;;;590.08;;
22768;SDS011;13001;51.968;5.918;2022-09-09T09:17:02;637.33;;;582.00;;
22768;SDS011;13001;51.968;5.918;2022-09-09T09:19:30;623.17;;;570.02;;
22768;SDS011;13001;51.968;5.918;2022-09-09T09:22:00;617.30;;;562.33;;
22768;SDS011;13001;51.968;5.918;2022-09-09T09:24:33;632.62;;;578.83;;
22768;SDS011;13001;51.968;5.918;2022-09-09T09:27:00;605.83;;;552.15;;
22768;SDS011;13001;51.968;5.918;2022-09-09T09:29:27;639.92;;;586.12;;
22768;SDS011;13001;51.968;5.918;2022-09-09T09:31:58;624.00;;;571.90;;
22768;SDS011;13001;51.968;5.918;2022-09-09T09:34:27;613.05;;;566.83;;
22768;SDS011;13001;51.968;5.918;2022-09-09T09:36:59;617.77;;;566.77;;
22768;SDS011;13001;51.968;5.918;2022-09-09T09:39:31;618.85;;;567.95;;
22768;SDS011;13001;51.968;5.918;2022-09-09T09:42:10;579.50;;;533.42;;
22768;SDS011;13001;51.968;5.918;2022-09-09T09:44:40;633.60;;;579.48;;
22768;SDS011;13001;51.968;5.918;2022-09-09T09:47:10;623.65;;;569.92;;
22768;SDS011;13001;51.968;5.918;2022-09-09T09:49:37;591.93;;;539.83;;
22768;SDS011;13001;51.968;5.918;2022-09-09T09:52:04;510.95;;;466.45;;
22768;SDS011;13001;51.968;5.918;2022-09-09T09:54:38;479.98;;;439.90;;
22768;SDS011;13001;51.968;5.918;2022-09-09T10:00:14;494.40;;;454.13;;
22768;SDS011;13001;51.968;5.918;2022-09-09T10:02:43;623.25;;;575.17;;
22768;SDS011;13001;51.968;5.918;2022-09-09T10:05:15;664.77;;;613.23;;
22768;SDS011;13001;51.968;5.918;2022-09-09T10:08:02;702.90;;;648.05;;
22768;SDS011;13001;51.968;5.918;2022-09-09T10:10:34;684.57;;;631.20;;
22768;SDS011;13001;51.968;5.918;2022-09-09T10:13:04;617.67;;;570.65;;
22768;SDS011;13001;51.968;5.918;2022-09-09T10:26:36;660.52;;;608.53;;
22768;SDS011;13001;51.968;5.918;2022-09-09T10:34:04;474.08;;;433.87;;
22768;SDS011;13001;51.968;5.918;2022-09-09T10:36:29;461.30;;;423.63;;
22768;SDS011;13001;51.968;5.918;2022-09-09T10:39:03;458.70;;;421.90;;
22768;SDS011;13001;51.968;5.918;2022-09-09T10:41:35;463.83;;;427.50;;
22768;SDS011;13001;51.968;5.918;2022-09-09T10:49:06;521.35;;;477.45;;
22768;SDS011;13001;51.968;5.918;2022-09-09T10:51:46;589.83;;;540.95;;
22768;SDS011;13001;51.968;5.918;2022-09-09T10:56:43;586.90;;;537.75;;
22768;SDS011;13001;51.968;5.918;2022-09-09T10:59:11;571.53;;;518.97;;
22768;SDS011;13001;51.968;5.918;2022-09-09T11:01:42;474.15;;;435.15;;
22768;SDS011;13001;51.968;5.918;2022-09-09T11:04:13;449.58;;;412.20;;
22768;SDS011;13001;51.968;5.918;2022-09-09T11:06:43;488.10;;;447.37;;
22768;SDS011;13001;51.968;5.918;2022-09-09T11:09:13;459.80;;;423.55;;
22768;SDS011;13001;51.968;5.918;2022-09-09T11:11:43;447.48;;;412.12;;
22768;SDS011;13001;51.968;5.918;2022-09-09T11:14:12;580.95;;;535.37;;
22768;SDS011;13001;51.968;5.918;2022-09-09T11:16:40;449.18;;;414.17;;
22768;SDS011;13001;51.968;5.918;2022-09-09T11:19:20;448.58;;;411.98;;
22768;SDS011;13001;51.968;5.918;2022-09-09T11:21:48;549.65;;;502.02;;
22768;SDS011;13001;51.968;5.918;2022-09-09T11:24:23;574.30;;;530.77;;
22768;SDS011;13001;51.968;5.918;2022-09-09T11:26:52;758.25;;;699.50;;
22768;SDS011;13001;51.968;5.918;2022-09-09T11:29:24;591.23;;;546.53;;
22768;SDS011;13001;51.968;5.918;2022-09-09T11:32:00;631.55;;;575.12;;
22768;SDS011;13001;51.968;5.918;2022-09-09T11:34:33;485.57;;;444.80;;
22768;SDS011;13001;51.968;5.918;2022-09-09T11:37:15;619.30;;;569.17;;
22768;SDS011;13001;51.968;5.918;2022-09-09T11:44:41;752.35;;;695.17;;
22768;SDS011;13001;51.968;5.918;2022-09-09T11:47:28;625.02;;;573.67;;
22768;SDS011;13001;51.968;5.918;2022-09-09T11:50:09;472.17;;;431.10;;
22768;SDS011;13001;51.968;5.918;2022-09-09T11:52:39;570.30;;;518.67;;
22768;SDS011;13001;51.968;5.918;2022-09-09T11:57:48;584.25;;;538.05;;
22768;SDS011;13001;51.968;5.918;2022-09-09T12:00:36;679.23;;;628.40;;
22768;SDS011;13001;51.968;5.918;2022-09-09T12:03:04;797.60;;;726.48;;
22768;SDS011;13001;51.968;5.918;2022-09-09T12:05:44;785.02;;;714.65;;
22768;SDS011;13001;51.968;5.918;2022-09-09T12:08:15;809.58;;;741.50;;
22768;SDS011;13001;51.968;5.918;2022-09-09T12:10:40;802.25;;;737.30;;
22768;SDS011;13001;51.968;5.918;2022-09-09T12:13:15;816.65;;;751.00;;
22768;SDS011;13001;51.968;5.918;2022-09-09T12:15:49;804.97;;;731.95;;
22768;SDS011;13001;51.968;5.918;2022-09-09T12:18:25;619.33;;;571.65;;
22768;SDS011;13001;51.968;5.918;2022-09-09T12:21:01;596.33;;;550.23;;
22768;SDS011;13001;51.968;5.918;2022-09-09T12:24:09;606.33;;;558.17;;
22768;SDS011;13001;51.968;5.918;2022-09-09T12:25:55;599.27;;;551.20;;
22768;SDS011;13001;51.968;5.918;2022-09-09T12:30:58;583.83;;;539.00;;
22768;SDS011;13001;51.968;5.918;2022-09-09T12:33:20;708.42;;;657.33;;
22768;SDS011;13001;51.968;5.918;2022-09-09T12:35:51;772.27;;;713.72;;
22768;SDS011;13001;51.968;5.918;2022-09-09T12:39:09;739.85;;;685.37;;
22768;SDS011;13001;51.968;5.918;2022-09-09T12:40:55;595.35;;;546.85;;
22768;SDS011;13001;51.968;5.918;2022-09-09T12:43:24;596.75;;;545.55;;
22768;SDS011;13001;51.968;5.918;2022-09-09T12:45:56;592.10;;;545.48;;
22768;SDS011;13001;51.968;5.918;2022-09-09T12:48:37;611.85;;;559.77;;
22768;SDS011;13001;51.968;5.918;2022-09-09T12:51:02;579.53;;;530.95;;
22768;SDS011;13001;51.968;5.918;2022-09-09T12:56:04;621.58;;;569.62;;
22768;SDS011;13001;51.968;5.918;2022-09-09T12:58:35;621.58;;;570.20;;
22768;SDS011;13001;51.968;5.918;2022-09-09T13:01:03;617.65;;;567.03;;
22768;SDS011;13001;51.968;5.918;2022-09-09T13:03:31;619.90;;;570.17;;
22768;SDS011;13001;51.968;5.918;2022-09-09T13:06:12;631.25;;;584.63;;
22768;SDS011;13001;51.968;5.918;2022-09-09T13:08:41;618.13;;;567.33;;
22768;SDS011;13001;51.968;5.918;2022-09-09T13:11:12;745.73;;;691.67;;
22768;SDS011;13001;51.968;5.918;2022-09-09T13:13:40;814.27;;;747.30;;
22768;SDS011;13001;51.968;5.918;2022-09-09T13:16:25;819.20;;;749.90;;
22768;SDS011;13001;51.968;5.918;2022-09-09T13:18:52;734.33;;;665.50;;
22768;SDS011;13001;51.968;5.918;2022-09-09T13:21:19;798.27;;;724.37;;
22768;SDS011;13001;51.968;5.918;2022-09-09T13:23:50;798.73;;;726.48;;
22768;SDS011;13001;51.968;5.918;2022-09-09T13:26:22;794.92;;;723.35;;
22768;SDS011;13001;51.968;5.918;2022-09-09T13:28:50;747.70;;;691.12;;
22768;SDS011;13001;51.968;5.918;2022-09-09T13:31:21;773.23;;;712.42;;
22768;SDS011;13001;51.968;5.918;2022-09-09T13:33:50;775.77;;;709.75;;
22768;SDS011;13001;51.968;5.918;2022-09-09T13:36:27;728.35;;;674.02;;
22768;SDS011;13001;51.968;5.918;2022-09-09T13:41:21;709.42;;;657.15;;
22768;SDS011;13001;51.968;5.918;2022-09-09T13:43:50;715.80;;;662.35;;
22768;SDS011;13001;51.968;5.918;2022-09-09T13:48:58;651.22;;;601.50;;
22768;SDS011;13001;51.968;5.918;2022-09-09T13:51:32;666.75;;;616.98;;
22768;SDS011;13001;51.968;5.918;2022-09-09T13:53:55;647.37;;;598.60;;
22768;SDS011;13001;51.968;5.918;2022-09-09T13:56:23;731.45;;;674.77;;
22768;SDS011;13001;51.968;5.918;2022-09-09T13:58:50;772.65;;;710.10;;
22768;SDS011;13001;51.968;5.918;2022-09-09T14:01:17;794.23;;;725.50;;
22768;SDS011;13001;51.968;5.918;2022-09-09T14:03:44;791.42;;;720.35;;
22768;SDS011;13001;51.968;5.918;2022-09-09T14:06:14;776.85;;;705.67;;
22768;SDS011;13001;51.968;5.918;2022-09-09T14:08:41;762.88;;;693.58;;
22768;SDS011;13001;51.968;5.918;2022-09-09T14:11:08;764.92;;;695.00;;
22768;SDS011;13001;51.968;5.918;2022-09-09T14:13:37;756.80;;;686.75;;
22768;SDS011;13001;51.968;5.918;2022-09-09T14:16:04;758.40;;;688.10;;
22768;SDS011;13001;51.968;5.918;2022-09-09T14:18:32;799.12;;;727.60;;
22768;SDS011;13001;51.968;5.918;2022-09-09T14:21:00;804.25;;;732.35;;
22768;SDS011;13001;51.968;5.918;2022-09-09T14:23:28;795.40;;;724.45;;
22768;SDS011;13001;51.968;5.918;2022-09-09T14:25:56;794.13;;;722.83;;
22768;SDS011;13001;51.968;5.918;2022-09-09T14:28:23;782.17;;;714.25;;
22768;SDS011;13001;51.968;5.918;2022-09-09T14:30:51;797.92;;;730.05;;
22768;SDS011;13001;51.968;5.918;2022-09-09T14:33:19;795.67;;;725.33;;
22768;SDS011;13001;51.968;5.918;2022-09-09T14:35:47;779.15;;;709.42;;
22768;SDS011;13001;51.968;5.918;2022-09-09T14:38:14;749.27;;;679.17;;
22768;SDS011;13001;51.968;5.918;2022-09-09T14:40:44;771.63;;;704.90;;
22768;SDS011;13001;51.968;5.918;2022-09-09T14:43:11;751.30;;;681.60;;
22768;SDS011;13001;51.968;5.918;2022-09-09T14:45:38;765.33;;;695.43;;
22768;SDS011;13001;51.968;5.918;2022-09-09T14:48:05;784.53;;;712.43;;
22768;SDS011;13001;51.968;5.918;2022-09-09T14:50:33;811.03;;;738.13;;
22768;SDS011;13001;51.968;5.918;2022-09-09T14:53:02;805.38;;;733.95;;
22768;SDS011;13001;51.968;5.918;2022-09-09T14:55:29;796.80;;;726.10;;
22768;SDS011;13001;51.968;5.918;2022-09-09T14:57:58;803.82;;;732.92;;
22768;SDS011;13001;51.968;5.918;2022-09-09T15:00:25;789.27;;;717.40;;
22768;SDS011;13001;51.968;5.918;2022-09-09T15:02:54;802.30;;;729.98;;
22768;SDS011;13001;51.968;5.918;2022-09-09T15:05:22;809.35;;;738.50;;
22768;SDS011;13001;51.968;5.918;2022-09-09T15:07:50;797.05;;;725.48;;
22768;SDS011;13001;51.968;5.918;2022-09-09T15:10:17;789.95;;;718.23;;
22768;SDS011;13001;51.968;5.918;2022-09-09T15:12:46;800.25;;;728.65;;
22768;SDS011;13001;51.968;5.918;2022-09-09T15:15:13;788.45;;;719.88;;
22768;SDS011;13001;51.968;5.918;2022-09-09T15:17:40;798.33;;;730.17;;
22768;SDS011;13001;51.968;5.918;2022-09-09T15:20:08;792.72;;;724.45;;
22768;SDS011;13001;51.968;5.918;2022-09-09T15:22:35;803.82;;;733.05;;
22768;SDS011;13001;51.968;5.918;2022-09-09T15:25:03;799.50;;;727.90;;
22768;SDS011;13001;51.968;5.918;2022-09-09T15:27:31;795.65;;;725.53;;
22768;SDS011;13001;51.968;5.918;2022-09-09T15:30:00;804.95;;;733.85;;
22768;SDS011;13001;51.968;5.918;2022-09-09T15:32:27;805.40;;;734.52;;
22768;SDS011;13001;51.968;5.918;2022-09-09T15:34:55;805.10;;;733.60;;
22768;SDS011;13001;51.968;5.918;2022-09-09T15:37:23;801.48;;;729.85;;
22768;SDS011;13001;51.968;5.918;2022-09-09T15:39:50;766.42;;;695.45;;
22768;SDS011;13001;51.968;5.918;2022-09-09T15:42:17;779.72;;;709.03;;